Fairmont, California
Current Conditions -  °F | °C
As of 7:36 PM on Monday 26 Jan 2015 (Local Time) from KSDB Reporting Station
Light Rain Light Rain  
Wind Chill: 40°   Ceiling: 200
Heat Index: 47°   Visibility: 0.5mi
Dew Point: 43°   Wind: 20mph
Humidity: 86%   Direction: 80°E
Pressure: 30.11"   Gusts: 29mph
Location:  34.8604°N, 118.583°W
Report Text: KSDB 270336Z AUTO 08017G25KT 1/2SM -RA FG VV002 08/06 A3011 RMK AO2 P0002 T00830061
Loading
Personal Weather Stations






























Interactive Weather Map New forecast layout! Learn more

10-Day Weather Forecast

Advertisements
Track Severe Weather on mobile